createdAt,value
2023-04-13T00:00:21.775Z,18.80
2023-04-13T00:03:45.833Z,18.80
2023-04-13T00:07:16.920Z,18.80
2023-04-13T00:10:41.766Z,18.80
2023-04-13T00:14:04.186Z,18.80
2023-04-13T00:17:26.970Z,18.80
2023-04-13T00:20:49.953Z,18.80
2023-04-13T00:24:12.598Z,18.80
2023-04-13T00:27:35.381Z,18.80
2023-04-13T00:30:57.684Z,18.80
2023-04-13T00:34:20.009Z,18.70
2023-04-13T00:37:43.250Z,18.70
2023-04-13T00:41:05.830Z,18.80
2023-04-13T00:44:28.574Z,18.80
2023-04-13T00:47:51.910Z,18.70
2023-04-13T00:51:18.436Z,18.80
2023-04-13T00:54:40.752Z,18.70
2023-04-13T00:58:02.975Z,18.70
2023-04-13T01:01:26.170Z,18.70
2023-04-13T01:04:49.270Z,18.70
2023-04-13T01:08:20.275Z,18.70
2023-04-13T01:12:04.194Z,18.70
2023-04-13T01:15:29.576Z,18.60
2023-04-13T01:18:54.888Z,18.70
2023-04-13T01:22:24.440Z,18.70
2023-04-13T01:25:51.548Z,18.60
2023-04-13T01:29:14.570Z,18.70
2023-04-13T01:32:39.073Z,18.70
2023-04-13T01:36:02.536Z,18.60
2023-04-13T01:39:31.897Z,18.60
2023-04-13T01:43:00.408Z,18.60
2023-04-13T01:46:31.482Z,18.60
2023-04-13T01:50:29.735Z,18.60
2023-04-13T01:54:12.809Z,18.60
2023-04-13T01:57:41.094Z,18.60
2023-04-13T02:01:07.916Z,18.60
2023-04-13T02:04:30.512Z,18.60
2023-04-13T02:07:54.880Z,18.70
2023-04-13T02:11:17.383Z,18.60
2023-04-13T02:14:39.710Z,18.60
2023-04-13T02:18:02.254Z,18.60
2023-04-13T02:21:24.604Z,18.60
2023-04-13T02:24:47.414Z,18.60
2023-04-13T02:28:11.381Z,18.60
2023-04-13T02:31:33.937Z,18.60
2023-04-13T02:34:56.246Z,18.60
2023-04-13T02:38:18.697Z,18.60
2023-04-13T02:41:45.553Z,18.50
2023-04-13T02:45:15.421Z,18.60
2023-04-13T02:48:38.330Z,18.60
2023-04-13T02:52:01.662Z,18.50
2023-04-13T02:55:39.468Z,18.50
2023-04-13T02:59:06.390Z,18.50
2023-04-13T03:02:30.209Z,18.50
2023-04-13T03:05:53.553Z,18.50
2023-04-13T03:09:21.463Z,18.50
2023-04-13T03:12:48.895Z,18.50
2023-04-13T03:16:11.362Z,18.50
2023-04-13T03:19:36.052Z,18.50
2023-04-13T03:22:59.362Z,18.50
2023-04-13T03:26:25.255Z,18.50
2023-04-13T03:29:49.392Z,18.50
2023-04-13T03:33:16.803Z,18.50
2023-04-13T03:36:39.207Z,18.50
2023-04-13T03:40:01.557Z,18.50
2023-04-13T03:43:28.565Z,18.40
2023-04-13T03:47:04.140Z,18.50
2023-04-13T03:50:31.390Z,18.50
2023-04-13T03:53:55.130Z,18.40
2023-04-13T03:57:22.745Z,18.50
2023-04-13T04:00:45.847Z,18.40
2023-04-13T04:04:16.887Z,18.40
2023-04-13T04:07:40.658Z,18.40
2023-04-13T04:11:05.678Z,18.40
2023-04-13T04:14:29.283Z,18.40
2023-04-13T04:18:00.458Z,18.50
2023-04-13T04:21:23.522Z,18.50
2023-04-13T04:24:45.909Z,18.50
2023-04-13T04:28:08.664Z,18.60
2023-04-13T04:31:37.161Z,18.60
2023-04-13T04:35:05.037Z,18.70
2023-04-13T04:38:32.821Z,18.80
2023-04-13T04:42:05.677Z,18.80
2023-04-13T04:45:29.760Z,18.80
2023-04-13T04:48:55.080Z,18.90
2023-04-13T04:52:20.765Z,18.90
2023-04-13T04:55:43.438Z,18.90
2023-04-13T04:59:14.248Z,19.00
2023-04-13T05:02:50.905Z,19.00
2023-04-13T05:06:13.441Z,19.00
2023-04-13T05:09:37.382Z,19.00
2023-04-13T05:12:59.771Z,19.00
2023-04-13T05:16:22.971Z,19.10
2023-04-13T05:19:47.617Z,19.10
2023-04-13T05:23:19.601Z,19.10
2023-04-13T05:26:48.888Z,19.10
2023-04-13T05:30:17.251Z,19.10
2023-04-13T05:33:39.555Z,19.10
2023-04-13T05:37:02.250Z,19.10
2023-04-13T05:40:26.147Z,19.10
2023-04-13T05:43:49.440Z,19.10
2023-04-13T05:47:11.955Z,19.10
2023-04-13T05:50:36.072Z,19.10
2023-04-13T05:53:58.958Z,19.10
2023-04-13T05:57:21.896Z,19.10
2023-04-13T06:00:46.220Z,19.10
2023-04-13T06:04:15.893Z,19.10
2023-04-13T06:07:38.261Z,19.20
2023-04-13T06:11:01.663Z,19.20
2023-04-13T06:14:24.938Z,19.20
2023-04-13T06:17:47.332Z,19.40
2023-04-13T06:21:10.026Z,19.40
2023-04-13T06:24:32.458Z,19.40
2023-04-13T06:27:54.785Z,19.40
2023-04-13T06:31:17.635Z,19.50
2023-04-13T06:34:44.554Z,19.50
2023-04-13T06:38:10.205Z,19.50
2023-04-13T06:41:49.410Z,19.50
2023-04-13T06:45:32.078Z,19.70
2023-04-13T06:48:57.043Z,19.60
2023-04-13T06:52:22.302Z,19.60
2023-04-13T06:55:45.113Z,19.60
2023-04-13T06:59:07.983Z,19.60
2023-04-13T07:02:30.768Z,19.70
2023-04-13T07:05:54.672Z,19.60
2023-04-13T07:09:17.596Z,19.60
2023-04-13T07:12:40.633Z,19.60
2023-04-13T07:16:04.340Z,19.60
2023-04-13T07:19:31.471Z,19.60
2023-04-13T07:22:54.307Z,19.60
2023-04-13T07:26:18.303Z,19.60
2023-04-13T07:29:40.774Z,19.70
2023-04-13T07:33:08.194Z,19.70
2023-04-13T07:36:31.294Z,19.80
2023-04-13T07:39:59.136Z,19.80
2023-04-13T07:43:25.347Z,19.80
2023-04-13T07:46:49.704Z,19.80
2023-04-13T07:50:13.411Z,19.90
2023-04-13T07:53:37.019Z,19.90
2023-04-13T07:56:59.873Z,20.00
2023-04-13T08:00:25.610Z,20.00
2023-04-13T08:03:52.624Z,20.00
2023-04-13T08:07:18.649Z,20.10
2023-04-13T08:10:41.059Z,20.10
2023-04-13T08:14:03.515Z,20.20
2023-04-13T08:17:26.389Z,20.30
2023-04-13T08:20:49.299Z,20.30
2023-04-13T08:24:14.018Z,20.30
2023-04-13T08:27:37.320Z,20.30
2023-04-13T08:30:59.597Z,20.30
2023-04-13T08:34:22.685Z,20.30
2023-04-13T08:37:45.503Z,20.30
2023-04-13T08:41:10.549Z,20.40
2023-04-13T08:44:33.333Z,20.40
2023-04-13T08:47:58.103Z,20.40
2023-04-13T08:51:22.509Z,20.40
2023-04-13T08:54:45.973Z,20.40
2023-04-13T08:58:20.588Z,20.40
2023-04-13T09:01:45.395Z,20.30
2023-04-13T09:05:16.357Z,20.20
2023-04-13T09:08:45.433Z,20.00
2023-04-13T09:12:09.593Z,20.00
2023-04-13T09:15:32.951Z,19.90
2023-04-13T09:19:08.814Z,19.90
2023-04-13T09:22:31.887Z,19.90
2023-04-13T09:26:07.099Z,19.90
2023-04-13T09:29:29.347Z,19.80
2023-04-13T09:33:08.454Z,19.80
2023-04-13T09:36:30.782Z,19.80
2023-04-13T09:39:53.411Z,19.80
2023-04-13T09:43:15.684Z,19.80
2023-04-13T09:46:38.057Z,19.80
2023-04-13T09:50:00.551Z,19.80
2023-04-13T09:53:22.888Z,19.80
2023-04-13T09:56:54.470Z,19.80
2023-04-13T10:00:21.045Z,19.70
2023-04-13T10:03:44.387Z,19.10
2023-04-13T10:07:06.883Z,18.90
2023-04-13T10:10:29.418Z,18.70
2023-04-13T10:13:55.499Z,18.50
2023-04-13T10:17:33.944Z,18.40
2023-04-13T10:20:59.196Z,18.40
2023-04-13T10:24:21.942Z,18.40
2023-04-13T10:27:44.140Z,18.50
2023-04-13T10:31:07.156Z,18.60
2023-04-13T10:34:32.040Z,18.50
2023-04-13T10:37:57.872Z,18.50
2023-04-13T10:41:24.917Z,18.40
2023-04-13T10:44:49.086Z,18.30
2023-04-13T10:48:21.650Z,18.20
2023-04-13T10:51:45.375Z,18.40
2023-04-13T10:55:10.199Z,18.60
2023-04-13T10:58:33.282Z,18.80
2023-04-13T11:01:56.083Z,18.90
2023-04-13T11:05:20.835Z,19.00
2023-04-13T11:08:48.562Z,19.10
2023-04-13T11:12:18.130Z,19.30
2023-04-13T11:15:40.837Z,19.40
2023-04-13T11:19:04.121Z,19.40
2023-04-13T11:22:28.950Z,19.40
2023-04-13T11:25:58.324Z,19.40
2023-04-13T11:29:24.568Z,19.50
2023-04-13T11:32:48.636Z,19.50
2023-04-13T11:36:11.994Z,19.50
2023-04-13T11:39:36.693Z,19.50
2023-04-13T11:42:59.883Z,19.60
2023-04-13T11:46:25.319Z,19.60
2023-04-13T11:49:48.300Z,19.60
2023-04-13T11:53:11.159Z,19.40
2023-04-13T11:56:33.466Z,19.40
2023-04-13T11:59:55.905Z,19.40
2023-04-13T12:06:47.735Z,19.40
2023-04-13T12:10:11.128Z,19.60
2023-04-13T12:13:47.313Z,19.50
2023-04-13T12:20:48.248Z,19.60
2023-04-13T12:24:11.539Z,19.50
2023-04-13T12:27:40.185Z,19.50
2023-04-13T12:31:12.554Z,19.50
2023-04-13T12:34:34.864Z,19.50
2023-04-13T12:37:57.221Z,19.50
2023-04-13T12:41:19.472Z,19.50
2023-04-13T12:44:41.662Z,19.60
2023-04-13T12:48:04.122Z,19.70
2023-04-13T12:51:26.656Z,19.70
2023-04-13T12:54:48.895Z,19.70
2023-04-13T12:58:11.421Z,19.70
2023-04-13T13:01:37.307Z,19.70
2023-04-13T13:04:59.865Z,19.70
2023-04-13T13:08:22.343Z,19.70
2023-04-13T13:11:44.763Z,19.70
2023-04-13T13:15:10.459Z,19.60
2023-04-13T13:18:49.184Z,19.60
2023-04-13T13:22:12.940Z,19.50
2023-04-13T13:25:37.982Z,19.50
2023-04-13T13:29:01.797Z,19.50
2023-04-13T13:32:25.593Z,19.60
2023-04-13T13:35:48.407Z,19.50
2023-04-13T13:39:12.303Z,19.60
2023-04-13T13:42:47.865Z,19.50
2023-04-13T13:46:13.264Z,19.30
2023-04-13T13:49:36.256Z,19.20
2023-04-13T13:53:27.765Z,19.10
2023-04-13T13:56:51.809Z,19.10
2023-04-13T14:00:19.051Z,19.10
2023-04-13T14:03:41.670Z,19.10
2023-04-13T14:07:04.089Z,19.20
2023-04-13T14:10:26.348Z,19.20
2023-04-13T14:13:49.642Z,19.40
2023-04-13T14:17:11.871Z,19.40
2023-04-13T14:20:34.999Z,19.50
2023-04-13T14:23:57.289Z,19.40
2023-04-13T14:27:19.511Z,19.50
2023-04-13T14:30:41.916Z,19.40
2023-04-13T14:34:04.097Z,19.50
2023-04-13T14:37:29.516Z,19.50
2023-04-13T14:40:52.376Z,19.40
2023-04-13T14:44:14.644Z,19.40
2023-04-13T14:47:37.089Z,19.40
2023-04-13T14:50:59.959Z,19.40
2023-04-13T14:54:22.219Z,19.40
2023-04-13T14:57:48.097Z,19.40
2023-04-13T15:01:18.996Z,19.40
2023-04-13T15:04:44.510Z,19.50
2023-04-13T15:08:07.888Z,19.40
2023-04-13T15:11:30.491Z,19.50
2023-04-13T15:14:52.773Z,19.50
2023-04-13T15:18:15.077Z,19.50
2023-04-13T15:21:37.490Z,19.60
2023-04-13T15:25:00.811Z,19.50
2023-04-13T15:28:23.583Z,19.50
2023-04-13T15:31:46.403Z,19.50
2023-04-13T15:35:08.880Z,19.50
2023-04-13T15:38:31.352Z,19.50
2023-04-13T15:41:55.149Z,19.50
2023-04-13T15:45:17.583Z,19.50
2023-04-13T15:48:39.827Z,19.40
2023-04-13T15:52:02.411Z,19.40
2023-04-13T15:55:24.868Z,19.40
2023-04-13T15:58:47.150Z,19.40
2023-04-13T16:02:09.472Z,19.40
2023-04-13T16:05:31.902Z,19.40
2023-04-13T16:08:56.893Z,19.30
2023-04-13T16:12:20.147Z,19.40
2023-04-13T16:15:42.357Z,19.40
2023-04-13T16:19:04.624Z,19.40
2023-04-13T16:22:27.082Z,19.50
2023-04-13T16:25:49.277Z,19.50
2023-04-13T16:29:11.623Z,19.50
2023-04-13T16:32:33.887Z,19.40
2023-04-13T16:35:56.158Z,19.50
2023-04-13T16:39:18.522Z,19.50
2023-04-13T16:42:41.275Z,19.50
2023-04-13T16:46:03.733Z,19.50
2023-04-13T16:49:26.276Z,19.50
2023-04-13T16:52:48.548Z,19.50
2023-04-13T16:56:11.715Z,19.50
2023-04-13T16:59:33.926Z,19.60
2023-04-13T17:02:56.289Z,19.60
2023-04-13T17:06:18.608Z,19.60
2023-04-13T17:09:40.978Z,19.70
2023-04-13T17:13:03.292Z,19.70
2023-04-13T17:16:29.081Z,19.60
2023-04-13T17:19:55.087Z,19.50
2023-04-13T17:23:17.278Z,19.40
2023-04-13T17:26:39.565Z,19.40
2023-04-13T17:30:02.024Z,19.40
2023-04-13T17:33:24.533Z,19.30
2023-04-13T17:36:46.817Z,19.30
2023-04-13T17:40:09.695Z,19.30
2023-04-13T17:43:33.238Z,19.30
2023-04-13T17:46:55.680Z,19.40
2023-04-13T17:50:18.045Z,19.40
2023-04-13T17:53:40.401Z,19.40
2023-04-13T17:57:03.005Z,19.50
2023-04-13T18:00:27.742Z,19.50
2023-04-13T18:03:50.045Z,19.50
2023-04-13T18:07:12.445Z,19.60
2023-04-13T18:10:34.604Z,19.60
2023-04-13T18:13:56.980Z,19.50
2023-04-13T18:17:21.316Z,19.50
2023-04-13T18:20:45.258Z,19.50
2023-04-13T18:24:07.560Z,19.50
2023-04-13T18:27:29.792Z,19.60
2023-04-13T18:30:52.049Z,19.60
2023-04-13T18:34:14.565Z,19.70
2023-04-13T18:37:36.802Z,19.70
2023-04-13T18:40:59.108Z,19.70
2023-04-13T18:44:21.302Z,19.70
2023-04-13T18:47:43.523Z,19.70
2023-04-13T18:51:07.862Z,19.70
2023-04-13T18:54:32.235Z,19.70
2023-04-13T18:57:55.326Z,19.70
2023-04-13T19:01:20.703Z,19.70
2023-04-13T19:04:43.184Z,19.70
2023-04-13T19:08:07.248Z,19.70
2023-04-13T19:11:45.749Z,19.70
2023-04-13T19:15:08.291Z,19.70
2023-04-13T19:18:30.625Z,19.70
2023-04-13T19:21:54.144Z,19.60
2023-04-13T19:25:16.677Z,19.50
2023-04-13T19:28:39.023Z,19.40
2023-04-13T19:32:01.432Z,19.40
2023-04-13T19:35:26.152Z,19.30
2023-04-13T19:38:48.352Z,19.30
2023-04-13T19:42:10.762Z,19.50
2023-04-13T19:45:33.037Z,19.50
2023-04-13T19:48:58.781Z,19.50
2023-04-13T19:52:21.074Z,19.50
2023-04-13T19:55:43.250Z,19.50
2023-04-13T19:59:06.659Z,19.50
2023-04-13T20:02:29.092Z,19.50
2023-04-13T20:05:52.198Z,19.50
2023-04-13T20:09:14.809Z,19.50
2023-04-13T20:12:37.089Z,19.50
2023-04-13T20:15:59.365Z,19.50
2023-04-13T20:19:23.656Z,19.50
2023-04-13T20:22:45.947Z,19.50
2023-04-13T20:26:08.197Z,19.50
2023-04-13T20:29:31.055Z,19.40
2023-04-13T20:32:53.289Z,19.40
2023-04-13T20:36:16.817Z,19.40
2023-04-13T20:39:49.718Z,19.40
2023-04-13T20:43:12.606Z,19.40
2023-04-13T20:46:35.801Z,19.40
2023-04-13T20:49:59.942Z,19.40
2023-04-13T20:53:23.929Z,19.40
2023-04-13T20:56:48.386Z,19.40
2023-04-13T21:00:15.556Z,19.40
2023-04-13T21:03:38.709Z,19.40
2023-04-13T21:07:02.460Z,19.40
2023-04-13T21:10:24.963Z,19.40
2023-04-13T21:13:47.238Z,19.40
2023-04-13T21:17:09.445Z,19.40
2023-04-13T21:20:31.646Z,19.40
2023-04-13T21:23:54.539Z,19.40
2023-04-13T21:27:18.377Z,19.40
2023-04-13T21:30:40.775Z,19.40
2023-04-13T21:34:04.066Z,19.40
2023-04-13T21:37:28.753Z,19.40
2023-04-13T21:40:51.299Z,19.40
2023-04-13T21:44:28.227Z,19.40
2023-04-13T21:47:53.706Z,19.40
2023-04-13T21:51:16.059Z,19.30
2023-04-13T21:54:38.271Z,19.40
2023-04-13T21:58:00.498Z,19.40
2023-04-13T22:01:22.792Z,19.40
2023-04-13T22:04:45.064Z,19.40
2023-04-13T22:08:07.520Z,19.40
2023-04-13T22:11:29.782Z,19.30
2023-04-13T22:14:55.336Z,19.40
2023-04-13T22:18:17.738Z,19.30
2023-04-13T22:21:39.928Z,19.40
2023-04-13T22:25:02.147Z,19.30
2023-04-13T22:28:26.191Z,19.30
2023-04-13T22:31:48.909Z,19.30
2023-04-13T22:35:11.617Z,19.30
2023-04-13T22:38:33.969Z,19.40
2023-04-13T22:41:57.213Z,19.30
2023-04-13T22:45:20.000Z,19.30
2023-04-13T22:48:42.158Z,19.30
2023-04-13T22:52:05.951Z,19.30
2023-04-13T22:55:28.146Z,19.30
2023-04-13T22:58:50.417Z,19.30
2023-04-13T23:02:13.034Z,19.30
2023-04-13T23:05:35.937Z,19.30
2023-04-13T23:08:58.757Z,19.30
2023-04-13T23:12:21.649Z,19.30
2023-04-13T23:15:43.935Z,19.30
2023-04-13T23:19:06.272Z,19.20
2023-04-13T23:22:28.686Z,19.20
2023-04-13T23:25:51.196Z,19.20
2023-04-13T23:29:13.426Z,19.20
2023-04-13T23:32:36.105Z,19.20
2023-04-13T23:35:58.799Z,19.20
2023-04-13T23:39:22.222Z,19.20
2023-04-13T23:42:44.386Z,19.10
2023-04-13T23:46:07.347Z,19.20
2023-04-13T23:49:29.595Z,19.10
2023-04-13T23:52:51.884Z,19.10
2023-04-13T23:56:14.157Z,19.10
2023-04-13T23:59:36.435Z,19.10
